sensor_id;sensor_type;location;lat;lon;timestamp;P1;durP1;ratioP1;P2;durP2;ratioP2
20336;SDS011;10326;53.660;10.200;2023-03-14T18:30:23;10.20;;;3.20;;
20336;SDS011;10326;53.660;10.200;2023-03-14T18:32:50;9.00;;;2.45;;
20336;SDS011;10326;53.660;10.200;2023-03-14T18:35:18;7.82;;;1.95;;
20336;SDS011;10326;53.660;10.200;2023-03-14T18:37:46;9.10;;;2.33;;
20336;SDS011;10326;53.660;10.200;2023-03-14T18:40:13;7.70;;;2.28;;
20336;SDS011;10326;53.660;10.200;2023-03-14T18:45:44;5.65;;;2.50;;
20336;SDS011;10326;53.660;10.200;2023-03-14T18:48:12;9.63;;;2.10;;
20336;SDS011;10326;53.660;10.200;2023-03-14T18:50:40;7.50;;;2.40;;
20336;SDS011;10326;53.660;10.200;2023-03-14T18:53:08;7.40;;;2.45;;
20336;SDS011;10326;53.660;10.200;2023-03-14T18:55:35;6.05;;;2.40;;
20336;SDS011;10326;53.660;10.200;2023-03-14T18:58:03;6.80;;;2.17;;
20336;SDS011;10326;53.660;10.200;2023-03-14T19:00:31;6.60;;;2.08;;
20336;SDS011;10326;53.660;10.200;2023-03-14T19:03:01;7.65;;;2.17;;
20336;SDS011;10326;53.660;10.200;2023-03-14T19:05:29;7.93;;;2.83;;
20336;SDS011;10326;53.660;10.200;2023-03-14T19:07:56;5.75;;;2.22;;
20336;SDS011;10326;53.660;10.200;2023-03-14T19:10:24;7.38;;;2.38;;
20336;SDS011;10326;53.660;10.200;2023-03-14T19:12:51;8.50;;;2.40;;
20336;SDS011;10326;53.660;10.200;2023-03-14T19:15:24;7.07;;;2.50;;
20336;SDS011;10326;53.660;10.200;2023-03-14T19:17:51;9.63;;;2.85;;
20336;SDS011;10326;53.660;10.200;2023-03-14T19:20:20;5.32;;;2.03;;
20336;SDS011;10326;53.660;10.200;2023-03-14T19:22:48;7.55;;;2.08;;
20336;SDS011;10326;53.660;10.200;2023-03-14T19:25:16;6.15;;;2.35;;
20336;SDS011;10326;53.660;10.200;2023-03-14T19:27:43;5.72;;;2.28;;
20336;SDS011;10326;53.660;10.200;2023-03-14T19:30:11;8.05;;;2.42;;
20336;SDS011;10326;53.660;10.200;2023-03-14T19:32:39;5.20;;;1.92;;
20336;SDS011;10326;53.660;10.200;2023-03-14T19:35:07;7.55;;;2.13;;
20336;SDS011;10326;53.660;10.200;2023-03-14T19:37:36;6.57;;;2.08;;
20336;SDS011;10326;53.660;10.200;2023-03-14T19:40:03;8.68;;;2.60;;
20336;SDS011;10326;53.660;10.200;2023-03-14T19:42:34;5.43;;;2.17;;
20336;SDS011;10326;53.660;10.200;2023-03-14T19:45:01;5.30;;;2.35;;
20336;SDS011;10326;53.660;10.200;2023-03-14T19:47:29;6.97;;;2.40;;
20336;SDS011;10326;53.660;10.200;2023-03-14T19:49:56;6.18;;;2.47;;
20336;SDS011;10326;53.660;10.200;2023-03-14T19:52:24;5.50;;;2.15;;
20336;SDS011;10326;53.660;10.200;2023-03-14T19:54:53;6.73;;;1.90;;
20336;SDS011;10326;53.660;10.200;2023-03-14T19:57:21;7.03;;;2.23;;
20336;SDS011;10326;53.660;10.200;2023-03-14T19:59:48;9.07;;;2.22;;
20336;SDS011;10326;53.660;10.200;2023-03-14T20:02:16;6.70;;;2.30;;
20336;SDS011;10326;53.660;10.200;2023-03-14T20:04:44;8.07;;;2.20;;
20336;SDS011;10326;53.660;10.200;2023-03-14T20:07:11;9.32;;;2.00;;
20336;SDS011;10326;53.660;10.200;2023-03-14T20:09:39;6.53;;;2.00;;
20336;SDS011;10326;53.660;10.200;2023-03-14T20:12:08;5.90;;;2.00;;
20336;SDS011;10326;53.660;10.200;2023-03-14T20:14:35;7.10;;;2.30;;
20336;SDS011;10326;53.660;10.200;2023-03-14T20:17:02;8.55;;;3.00;;
20336;SDS011;10326;53.660;10.200;2023-03-14T20:19:29;7.17;;;2.27;;
20336;SDS011;10326;53.660;10.200;2023-03-14T20:21:57;8.07;;;2.40;;
20336;SDS011;10326;53.660;10.200;2023-03-14T20:24:24;8.05;;;2.50;;
20336;SDS011;10326;53.660;10.200;2023-03-14T20:26:52;9.40;;;2.93;;
20336;SDS011;10326;53.660;10.200;2023-03-14T20:29:20;7.45;;;2.53;;
20336;SDS011;10326;53.660;10.200;2023-03-14T20:31:48;10.70;;;2.53;;
20336;SDS011;10326;53.660;10.200;2023-03-14T20:34:15;8.80;;;2.30;;
20336;SDS011;10326;53.660;10.200;2023-03-14T20:36:42;5.32;;;2.17;;
20336;SDS011;10326;53.660;10.200;2023-03-14T20:39:13;8.48;;;2.40;;
20336;SDS011;10326;53.660;10.200;2023-03-14T20:41:40;7.85;;;2.15;;
20336;SDS011;10326;53.660;10.200;2023-03-14T20:44:07;5.38;;;1.80;;
20336;SDS011;10326;53.660;10.200;2023-03-14T20:46:36;5.23;;;1.70;;
20336;SDS011;10326;53.660;10.200;2023-03-14T20:49:05;4.00;;;1.77;;
20336;SDS011;10326;53.660;10.200;2023-03-14T20:51:32;4.32;;;1.60;;
20336;SDS011;10326;53.660;10.200;2023-03-14T20:53:59;8.63;;;2.20;;
20336;SDS011;10326;53.660;10.200;2023-03-14T20:56:26;3.90;;;1.70;;
20336;SDS011;10326;53.660;10.200;2023-03-14T20:58:54;6.47;;;1.60;;
20336;SDS011;10326;53.660;10.200;2023-03-14T21:01:21;6.70;;;2.00;;
20336;SDS011;10326;53.660;10.200;2023-03-14T21:03:50;5.30;;;1.70;;
20336;SDS011;10326;53.660;10.200;2023-03-14T21:06:17;5.50;;;2.17;;
20336;SDS011;10326;53.660;10.200;2023-03-14T21:08:46;7.07;;;1.70;;
20336;SDS011;10326;53.660;10.200;2023-03-14T21:11:13;4.37;;;1.50;;
20336;SDS011;10326;53.660;10.200;2023-03-14T21:13:40;3.37;;;1.40;;
20336;SDS011;10326;53.660;10.200;2023-03-14T21:16:07;5.70;;;1.70;;
20336;SDS011;10326;53.660;10.200;2023-03-14T21:18:35;6.53;;;1.60;;
20336;SDS011;10326;53.660;10.200;2023-03-14T21:21:04;4.27;;;1.67;;
20336;SDS011;10326;53.660;10.200;2023-03-14T21:23:31;2.63;;;1.40;;
20336;SDS011;10326;53.660;10.200;2023-03-14T21:25:59;2.43;;;1.60;;
20336;SDS011;10326;53.660;10.200;2023-03-14T21:28:28;5.23;;;1.63;;
20336;SDS011;10326;53.660;10.200;2023-03-14T21:31:02;3.30;;;1.43;;
20336;SDS011;10326;53.660;10.200;2023-03-14T21:33:31;3.00;;;1.70;;
20336;SDS011;10326;53.660;10.200;2023-03-14T21:35:58;3.20;;;1.50;;
20336;SDS011;10326;53.660;10.200;2023-03-14T21:38:27;4.23;;;1.90;;
20336;SDS011;10326;53.660;10.200;2023-03-14T21:40:54;6.53;;;1.70;;
20336;SDS011;10326;53.660;10.200;2023-03-14T21:43:22;4.23;;;1.67;;
20336;SDS011;10326;53.660;10.200;2023-03-14T21:45:50;3.27;;;1.70;;
20336;SDS011;10326;53.660;10.200;2023-03-14T21:48:18;4.57;;;1.80;;
20336;SDS011;10326;53.660;10.200;2023-03-14T21:50:46;4.83;;;1.43;;
20336;SDS011;10326;53.660;10.200;2023-03-14T21:53:14;4.83;;;1.50;;
20336;SDS011;10326;53.660;10.200;2023-03-14T21:55:43;5.80;;;2.10;;
20336;SDS011;10326;53.660;10.200;2023-03-14T21:58:12;5.93;;;1.73;;
20336;SDS011;10326;53.660;10.200;2023-03-14T22:00:41;5.30;;;1.90;;
20336;SDS011;10326;53.660;10.200;2023-03-14T22:03:13;7.03;;;2.00;;
20336;SDS011;10326;53.660;10.200;2023-03-14T22:05:41;4.70;;;2.07;;
20336;SDS011;10326;53.660;10.200;2023-03-14T22:08:09;4.30;;;1.60;;
20336;SDS011;10326;53.660;10.200;2023-03-14T22:10:42;3.23;;;1.40;;
20336;SDS011;10326;53.660;10.200;2023-03-14T22:13:10;5.07;;;1.93;;
20336;SDS011;10326;53.660;10.200;2023-03-14T22:15:37;5.17;;;1.80;;
20336;SDS011;10326;53.660;10.200;2023-03-14T22:18:04;4.83;;;1.93;;
20336;SDS011;10326;53.660;10.200;2023-03-14T22:20:32;4.33;;;1.60;;
20336;SDS011;10326;53.660;10.200;2023-03-14T22:22:59;5.50;;;1.53;;
20336;SDS011;10326;53.660;10.200;2023-03-14T22:25:27;5.10;;;1.53;;
20336;SDS011;10326;53.660;10.200;2023-03-14T22:27:55;4.17;;;1.70;;
20336;SDS011;10326;53.660;10.200;2023-03-14T22:30:22;4.63;;;1.77;;
20336;SDS011;10326;53.660;10.200;2023-03-14T22:32:50;6.10;;;1.93;;
20336;SDS011;10326;53.660;10.200;2023-03-14T22:35:17;5.67;;;1.80;;
20336;SDS011;10326;53.660;10.200;2023-03-14T22:37:44;5.27;;;1.70;;
20336;SDS011;10326;53.660;10.200;2023-03-14T22:40:12;4.77;;;1.90;;
20336;SDS011;10326;53.660;10.200;2023-03-14T22:42:39;3.93;;;2.10;;
20336;SDS011;10326;53.660;10.200;2023-03-14T22:45:08;5.07;;;1.90;;
20336;SDS011;10326;53.660;10.200;2023-03-14T22:47:36;4.50;;;1.77;;
20336;SDS011;10326;53.660;10.200;2023-03-14T22:50:04;6.57;;;1.77;;
20336;SDS011;10326;53.660;10.200;2023-03-14T22:52:32;4.27;;;1.73;;
20336;SDS011;10326;53.660;10.200;2023-03-14T22:54:59;4.00;;;1.50;;
20336;SDS011;10326;53.660;10.200;2023-03-14T22:57:26;3.70;;;1.97;;
20336;SDS011;10326;53.660;10.200;2023-03-14T22:59:54;6.57;;;1.97;;
20336;SDS011;10326;53.660;10.200;2023-03-14T23:02:22;6.47;;;1.77;;
20336;SDS011;10326;53.660;10.200;2023-03-14T23:04:50;3.33;;;1.80;;
20336;SDS011;10326;53.660;10.200;2023-03-14T23:07:17;3.93;;;1.70;;
20336;SDS011;10326;53.660;10.200;2023-03-14T23:09:44;4.90;;;1.90;;
20336;SDS011;10326;53.660;10.200;2023-03-14T23:12:11;3.20;;;1.73;;
20336;SDS011;10326;53.660;10.200;2023-03-14T23:14:41;3.97;;;1.87;;
20336;SDS011;10326;53.660;10.200;2023-03-14T23:17:09;4.03;;;1.90;;
20336;SDS011;10326;53.660;10.200;2023-03-14T23:19:37;5.07;;;2.17;;
20336;SDS011;10326;53.660;10.200;2023-03-14T23:22:05;3.87;;;1.80;;
20336;SDS011;10326;53.660;10.200;2023-03-14T23:24:34;7.50;;;1.80;;
20336;SDS011;10326;53.660;10.200;2023-03-14T23:27:01;6.70;;;2.10;;
20336;SDS011;10326;53.660;10.200;2023-03-14T23:29:29;5.23;;;2.00;;
20336;SDS011;10326;53.660;10.200;2023-03-14T23:31:56;4.57;;;1.90;;
20336;SDS011;10326;53.660;10.200;2023-03-14T23:34:23;6.63;;;2.10;;
20336;SDS011;10326;53.660;10.200;2023-03-14T23:36:52;4.73;;;1.80;;
20336;SDS011;10326;53.660;10.200;2023-03-14T23:39:19;3.07;;;1.50;;
20336;SDS011;10326;53.660;10.200;2023-03-14T23:41:47;2.93;;;1.57;;
20336;SDS011;10326;53.660;10.200;2023-03-14T23:44:14;6.53;;;1.63;;
20336;SDS011;10326;53.660;10.200;2023-03-14T23:46:41;2.77;;;1.07;;
20336;SDS011;10326;53.660;10.200;2023-03-14T23:49:08;3.33;;;1.33;;
20336;SDS011;10326;53.660;10.200;2023-03-14T23:51:39;1.70;;;1.30;;
20336;SDS011;10326;53.660;10.200;2023-03-14T23:54:08;2.43;;;1.40;;
20336;SDS011;10326;53.660;10.200;2023-03-14T23:56:35;2.50;;;1.40;;
20336;SDS011;10326;53.660;10.200;2023-03-14T23:59:04;4.47;;;1.87;;
